Time;durP1;ratioP1;P1;durP2;ratioP2;P2;SDS_P1;SDS_P2;PMS_P1;PMS_P2;Temp;Humidity;BMP_temperature;BMP_pressure;BME280_temperature;BME280_humidity;BME280_pressure;Samples;Min_cycle;Max_cycle;Signal;HPM_P1;HPM_P2
2024/03/09 00:01:03;;;;;;;2.80;1.08;;;;;;;;;;2106254;28;20036;-84
2024/03/09 00:02:23;;;;;;;2.22;1.08;;;;;;;;;;2096689;28;20025;-83
2024/03/09 00:03:42;;;;;;;0.90;0.90;;;;;;;;;;2101611;28;20377;-83
2024/03/09 00:05:05;;;;;;;0.90;0.90;;;;;;;;;;2108224;28;20044;-82
2024/03/09 00:06:24;;;;;;;1.20;1.10;;;;;;;;;;2106638;28;20016;-83
2024/03/09 00:07:43;;;;;;;1.40;1.30;;;;;;;;;;2098821;28;20445;-83
2024/03/09 00:09:06;;;;;;;2.95;0.98;;;;;;;;;;2094641;28;20013;-82
2024/03/09 00:10:26;;;;;;;1.30;1.20;;;;;;;;;;2095198;28;20036;-82
2024/03/09 00:11:46;;;;;;;2.15;1.30;;;;;;;;;;2103724;28;20036;-82
2024/03/09 00:13:05;;;;;;;1.52;1.42;;;;;;;;;;2098175;28;20032;-82
2024/03/09 00:14:26;;;;;;;1.80;1.40;;;;;;;;;;2104382;28;20024;-83
2024/03/09 00:15:45;;;;;;;1.45;1.35;;;;;;;;;;2105589;28;20099;-83
2024/03/09 00:17:04;;;;;;;1.30;1.20;;;;;;;;;;2105530;28;20103;-83
2024/03/09 00:18:25;;;;;;;1.50;1.40;;;;;;;;;;2106953;28;20028;-84
2024/03/09 00:19:44;;;;;;;1.38;1.27;;;;;;;;;;2107259;28;20032;-84
2024/03/09 00:21:08;;;;;;;2.28;1.77;;;;;;;;;;2106697;28;20024;-84
2024/03/09 00:22:27;;;;;;;2.30;1.92;;;;;;;;;;2096861;28;20033;-84
2024/03/09 00:23:50;;;;;;;2.15;2.05;;;;;;;;;;2099645;28;20036;-85
2024/03/09 00:25:10;;;;;;;;;;;;;;;;;;2091723;28;20029;-84
2024/03/09 00:26:28;;;;;;;2.60;2.22;;;;;;;;;;2091997;28;19904;-83
2024/03/09 00:27:48;;;;;;;3.00;2.80;;;;;;;;;;2105355;28;20039;-85
2024/03/09 00:29:11;;;;;;;3.10;2.85;;;;;;;;;;2106572;28;20157;-84
2024/03/09 00:30:30;;;;;;;;;;;;;;;;;;2100766;28;20033;-85
2024/03/09 00:31:52;;;;;;;3.33;3.00;;;;;;;;;;2102201;28;19904;-85
2024/03/09 00:33:11;;;;;;;3.22;2.92;;;;;;;;;;2096442;28;20048;-85
2024/03/09 00:34:30;;;;;;;3.85;3.55;;;;;;;;;;2091363;28;20028;-85
2024/03/09 00:35:50;;;;;;;5.28;3.33;;;;;;;;;;2105850;28;20206;-83
2024/03/09 00:37:09;;;;;;;3.40;3.10;;;;;;;;;;2107222;28;20032;-83
2024/03/09 00:38:28;;;;;;;4.45;3.53;;;;;;;;;;2108644;28;20024;-83
2024/03/09 00:39:47;;;;;;;3.70;3.40;;;;;;;;;;2106171;28;20032;-83
2024/03/09 00:41:09;;;;;;;3.67;3.00;;;;;;;;;;2100567;28;20037;-83
2024/03/09 00:42:29;;;;;;;3.10;2.60;;;;;;;;;;2103808;28;20020;-83
2024/03/09 00:43:54;;;;;;;3.30;3.00;;;;;;;;;;2109774;28;20411;-83
2024/03/09 00:45:16;;;;;;;3.78;2.92;;;;;;;;;;2095796;28;20509;-83
2024/03/09 00:46:36;;;;;;;2.45;2.25;;;;;;;;;;2095041;28;20033;-84
2024/03/09 00:47:58;;;;;;;2.67;2.40;;;;;;;;;;2104189;28;20149;-84
2024/03/09 00:49:17;;;;;;;3.08;2.63;;;;;;;;;;2098370;28;20021;-83
2024/03/09 00:50:36;;;;;;;3.25;2.92;;;;;;;;;;2092895;28;20108;-84
2024/03/09 00:51:54;;;;;;;4.68;3.00;;;;;;;;;;2101920;28;20028;-83
2024/03/09 00:53:13;;;;;;;2.63;2.42;;;;;;;;;;2106214;28;20016;-83
2024/03/09 00:54:35;;;;;;;2.92;2.63;;;;;;;;;;2107264;28;20385;-82
2024/03/09 00:55:54;;;;;;;3.15;2.40;;;;;;;;;;2096318;28;20484;-82
2024/03/09 00:57:13;;;;;;;3.75;2.17;;;;;;;;;;2101903;28;20024;-81
2024/03/09 00:58:32;;;;;;;2.88;2.00;;;;;;;;;;2097332;28;20025;-82
2024/03/09 00:59:54;;;;;;;2.45;2.25;;;;;;;;;;2101125;28;20020;-82
2024/03/09 01:01:15;;;;;;;2.40;2.20;;;;;;;;;;2098617;28;20036;-81
2024/03/09 01:02:35;;;;;;;4.10;2.83;;;;;;;;;;2101940;28;20036;-82
2024/03/09 01:03:56;;;;;;;3.17;2.33;;;;;;;;;;2098032;28;20524;-82
2024/03/09 01:05:22;;;;;;;4.82;2.70;;;;;;;;;;2102122;28;20024;-82
2024/03/09 01:06:41;;;;;;;3.28;2.10;;;;;;;;;;2108198;28;20060;-81
2024/03/09 01:08:00;;;;;;;3.75;2.08;;;;;;;;;;2106084;28;20431;-84
2024/03/09 01:09:20;;;;;;;4.18;2.65;;;;;;;;;;2107982;28;20032;-82
2024/03/09 01:10:40;;;;;;;2.67;2.10;;;;;;;;;;2096510;28;20061;-83
2024/03/09 01:11:59;;;;;;;1.83;1.73;;;;;;;;;;2098477;28;20025;-82
2024/03/09 01:13:18;;;;;;;3.40;2.08;;;;;;;;;;2093029;28;20494;-84
2024/03/09 01:14:37;;;;;;;3.28;2.03;;;;;;;;;;2103782;28;20020;-83
2024/03/09 01:15:55;;;;;;;2.25;2.05;;;;;;;;;;2106275;28;20107;-84
2024/03/09 01:17:20;;;;;;;2.13;1.92;;;;;;;;;;2108030;28;20024;-83
2024/03/09 01:18:39;;;;;;;1.92;1.83;;;;;;;;;;2105887;28;20032;-82
2024/03/09 01:19:58;;;;;;;2.88;2.00;;;;;;;;;;2108073;28;20481;-83
2024/03/09 01:21:17;;;;;;;2.38;2.00;;;;;;;;;;2106369;28;20032;-83
2024/03/09 01:22:36;;;;;;;2.75;1.77;;;;;;;;;;2099375;28;20025;-83
2024/03/09 01:23:55;;;;;;;2.30;2.10;;;;;;;;;;2102388;28;20034;-85
2024/03/09 01:25:14;;;;;;;3.40;1.90;;;;;;;;;;2108437;28;20049;-85
2024/03/09 01:26:33;;;;;;;4.75;2.10;;;;;;;;;;2104755;28;20044;-85
2024/03/09 01:27:52;;;;;;;3.33;1.85;;;;;;;;;;2106882;28;20032;-84
2024/03/09 01:29:11;;;;;;;2.95;2.20;;;;;;;;;;2105313;28;20509;-84
2024/03/09 01:30:32;;;;;;;1.92;1.83;;;;;;;;;;2109569;28;20028;-84
2024/03/09 01:31:52;;;;;;;2.05;1.85;;;;;;;;;;2107783;28;20028;-84
2024/03/09 01:33:11;;;;;;;2.35;2.15;;;;;;;;;;2097253;28;20032;-82
2024/03/09 01:34:30;;;;;;;1.92;1.83;;;;;;;;;;2093750;28;20036;-82
2024/03/09 01:35:50;;;;;;;2.22;1.98;;;;;;;;;;2105134;28;20032;-84
2024/03/09 01:37:12;;;;;;;1.83;1.50;;;;;;;;;;2107877;28;20055;-84
2024/03/09 01:38:31;;;;;;;1.70;1.60;;;;;;;;;;2100043;28;20024;-83
2024/03/09 01:39:50;;;;;;;1.55;1.45;;;;;;;;;;2103984;28;20032;-84
2024/03/09 01:41:09;;;;;;;3.38;2.05;;;;;;;;;;2110005;28;20040;-84
2024/03/09 01:42:28;;;;;;;3.45;1.92;;;;;;;;;;2099579;28;20017;-82
2024/03/09 01:43:47;;;;;;;1.60;1.50;;;;;;;;;;2095902;28;20599;-83
2024/03/09 01:45:07;;;;;;;3.80;1.92;;;;;;;;;;2093920;28;20409;-82
2024/03/09 01:46:26;;;;;;;3.00;1.92;;;;;;;;;;2104276;28;20036;-82
2024/03/09 01:47:45;;;;;;;2.72;1.98;;;;;;;;;;2108101;28;20031;-81
2024/03/09 01:49:05;;;;;;;1.70;1.60;;;;;;;;;;2098874;28;20032;-82
2024/03/09 01:50:25;;;;;;;1.75;1.65;;;;;;;;;;2094846;28;20428;-81
2024/03/09 01:51:47;;;;;;;1.75;1.65;;;;;;;;;;2102714;28;20024;-81
2024/03/09 01:53:07;;;;;;;1.93;1.60;;;;;;;;;;2098459;28;20020;-82
2024/03/09 01:54:28;;;;;;;2.38;2.05;;;;;;;;;;2102097;28;20229;-82
2024/03/09 01:55:48;;;;;;;1.65;1.52;;;;;;;;;;2107352;28;20056;-81
2024/03/09 01:57:07;;;;;;;1.50;1.40;;;;;;;;;;2097638;28;20029;-81
2024/03/09 01:58:27;;;;;;;3.22;1.73;;;;;;;;;;2103521;28;20024;-82
2024/03/09 01:59:51;;;;;;;1.70;1.60;;;;;;;;;;2101906;28;20170;-81
2024/03/09 02:01:21;;;;;;;;;;;;;;;;;;2105282;28;20027;-82
2024/03/09 02:02:40;;;;;;;1.90;1.70;;;;;;;;;;2096568;28;19940;-82
2024/03/09 02:04:00;;;;;;;2.22;2.03;;;;;;;;;;2104794;28;20032;-82
2024/03/09 02:05:22;;;;;;;2.00;1.90;;;;;;;;;;2097296;28;20036;-83
2024/03/09 02:06:42;;;;;;;1.80;1.70;;;;;;;;;;2095839;28;20025;-81
2024/03/09 02:08:01;;;;;;;2.28;2.08;;;;;;;;;;2101988;28;20031;-82
2024/03/09 02:09:20;;;;;;;1.73;1.60;;;;;;;;;;2106417;28;20028;-82
2024/03/09 02:10:39;;;;;;;5.90;1.80;;;;;;;;;;2106503;28;20020;-83
2024/03/09 02:12:03;;;;;;;2.70;1.90;;;;;;;;;;2108374;28;20040;-82
2024/03/09 02:13:23;;;;;;;2.00;1.85;;;;;;;;;;2098828;28;20024;-84
2024/03/09 02:14:44;;;;;;;2.95;1.80;;;;;;;;;;2096337;28;20024;-83
2024/03/09 02:16:03;;;;;;;2.00;1.90;;;;;;;;;;2097604;28;20056;-81
2024/03/09 02:17:24;;;;;;;2.22;2.03;;;;;;;;;;2104012;28;20461;-80
2024/03/09 02:18:48;;;;;;;2.33;1.98;;;;;;;;;;2105965;28;20471;-79
2024/03/09 02:20:10;;;;;;;3.85;2.15;;;;;;;;;;2095466;28;20342;-79
2024/03/09 02:21:31;;;;;;;1.67;1.58;;;;;;;;;;2094248;28;20083;-79
2024/03/09 02:22:53;;;;;;;2.13;1.70;;;;;;;;;;2102359;28;20048;-80
2024/03/09 02:24:18;;;;;;;2.10;1.90;;;;;;;;;;2106185;28;20107;-80
2024/03/09 02:25:39;;;;;;;1.90;1.80;;;;;;;;;;2097654;28;20028;-80
2024/03/09 02:26:59;;;;;;;2.03;1.92;;;;;;;;;;2103228;28;20032;-78
2024/03/09 02:28:18;;;;;;;2.10;1.80;;;;;;;;;;2106059;28;20144;-79
2024/03/09 02:29:37;;;;;;;3.25;1.73;;;;;;;;;;2097022;28;20025;-78
2024/03/09 02:30:59;;;;;;;2.33;1.70;;;;;;;;;;2100670;28;20020;-79
2024/03/09 02:32:21;;;;;;;1.92;1.83;;;;;;;;;;2106813;28;20016;-79
2024/03/09 02:33:40;;;;;;;2.45;2.08;;;;;;;;;;2104953;28;20511;-79
2024/03/09 02:34:59;;;;;;;2.00;1.90;;;;;;;;;;2106300;28;20393;-78
2024/03/09 02:36:22;;;;;;;3.17;2.00;;;;;;;;;;2104976;28;20469;-79
2024/03/09 02:37:42;;;;;;;1.98;1.77;;;;;;;;;;2104695;28;20020;-78
2024/03/09 02:39:01;;;;;;;2.88;1.70;;;;;;;;;;2097268;28;20032;-79
2024/03/09 02:40:21;;;;;;;2.63;2.40;;;;;;;;;;2103160;28;20024;-79
2024/03/09 02:41:40;;;;;;;2.20;2.00;;;;;;;;;;2104256;28;20116;-80
2024/03/09 02:43:11;;;;;;;4.93;2.15;;;;;;;;;;2097943;28;20029;-79
2024/03/09 02:44:31;;;;;;;3.35;2.00;;;;;;;;;;2103605;28;20383;-79
2024/03/09 02:45:50;;;;;;;2.85;1.98;;;;;;;;;;2106802;28;20035;-79
2024/03/09 02:47:12;;;;;;;2.45;2.20;;;;;;;;;;2097248;28;20024;-79
2024/03/09 02:48:31;;;;;;;3.53;2.08;;;;;;;;;;2100543;28;20496;-79
2024/03/09 02:49:50;;;;;;;3.15;2.05;;;;;;;;;;2093506;28;20037;-81
2024/03/09 02:51:12;;;;;;;2.25;2.05;;;;;;;;;;2092078;28;20083;-79
2024/03/09 02:52:33;;;;;;;3.63;2.22;;;;;;;;;;2103728;28;20012;-79
2024/03/09 02:53:52;;;;;;;2.30;2.00;;;;;;;;;;2105665;28;20111;-79
2024/03/09 02:55:11;;;;;;;1.98;1.88;;;;;;;;;;2105765;28;20036;-80
2024/03/09 02:56:30;;;;;;;2.20;2.00;;;;;;;;;;2097462;28;20029;-82
2024/03/09 02:57:50;;;;;;;3.55;2.33;;;;;;;;;;2101474;28;20028;-81
2024/03/09 02:59:09;;;;;;;2.30;1.92;;;;;;;;;;2106467;28;20020;-81
2024/03/09 03:00:28;;;;;;;2.97;2.20;;;;;;;;;;2106729;28;20080;-81
2024/03/09 03:01:49;;;;;;;2.42;2.15;;;;;;;;;;2107782;28;20032;-81
2024/03/09 03:04:46;;;;;;;2.17;2.08;;;;;;;;;;2105689;28;20028;-80
2024/03/09 03:06:06;;;;;;;2.33;2.10;;;;;;;;;;2105168;28;20028;-80
2024/03/09 03:07:25;;;;;;;3.05;1.90;;;;;;;;;;2096024;28;20157;-80
2024/03/09 03:08:45;;;;;;;2.08;1.88;;;;;;;;;;2101932;28;20532;-81
2024/03/09 03:10:08;;;;;;;3.30;2.05;;;;;;;;;;2097526;28;20024;-80
2024/03/09 03:11:28;;;;;;;1.67;1.55;;;;;;;;;;2102763;28;20642;-80
2024/03/09 03:12:46;;;;;;;2.60;2.25;;;;;;;;;;2105230;28;20020;-81
2024/03/09 03:14:05;;;;;;;2.22;2.03;;;;;;;;;;2105994;28;20020;-80
2024/03/09 03:15:25;;;;;;;1.95;1.80;;;;;;;;;;2105376;28;20027;-80
2024/03/09 03:16:47;;;;;;;1.98;1.75;;;;;;;;;;2106255;28;20064;-79
2024/03/09 03:18:08;;;;;;;2.30;2.10;;;;;;;;;;2105282;28;20074;-80
2024/03/09 03:19:28;;;;;;;2.03;1.73;;;;;;;;;;2106267;28;20016;-80
2024/03/09 03:20:48;;;;;;;3.28;1.88;;;;;;;;;;2104620;28;20024;-81
2024/03/09 03:22:07;;;;;;;2.45;2.13;;;;;;;;;;2105098;28;20473;-80
2024/03/09 03:23:26;;;;;;;6.22;1.90;;;;;;;;;;2097049;28;20025;-80
2024/03/09 03:24:45;;;;;;;6.95;2.10;;;;;;;;;;2093633;28;20025;-80
2024/03/09 03:26:04;;;;;;;2.20;2.03;;;;;;;;;;2102890;28;20028;-79
2024/03/09 03:27:23;;;;;;;1.52;1.42;;;;;;;;;;2097369;28;20520;-80
2024/03/09 03:28:47;;;;;;;2.63;1.98;;;;;;;;;;2096283;28;20020;-80
2024/03/09 03:30:09;;;;;;;2.00;1.90;;;;;;;;;;2093525;28;20029;-81
2024/03/09 03:31:31;;;;;;;2.38;1.70;;;;;;;;;;2102334;28;20477;-81
2024/03/09 03:32:50;;;;;;;1.95;1.85;;;;;;;;;;2106345;28;20036;-81
2024/03/09 03:34:09;;;;;;;1.75;1.58;;;;;;;;;;2105324;28;20517;-80
2024/03/09 03:35:31;;;;;;;1.70;1.50;;;;;;;;;;2106747;28;20397;-81
2024/03/09 03:36:52;;;;;;;1.60;1.50;;;;;;;;;;2104448;28;20044;-82
2024/03/09 03:38:11;;;;;;;2.20;2.00;;;;;;;;;;2098118;28;20032;-81
2024/03/09 03:39:30;;;;;;;1.98;1.80;;;;;;;;;;2095320;28;20029;-82
2024/03/09 03:40:49;;;;;;;1.77;1.67;;;;;;;;;;2094358;28;20099;-81
2024/03/09 03:42:08;;;;;;;1.80;1.70;;;;;;;;;;2096806;28;20037;-79
2024/03/09 03:43:28;;;;;;;1.60;1.48;;;;;;;;;;2101456;28;20025;-79
2024/03/09 03:44:47;;;;;;;2.05;1.70;;;;;;;;;;2105529;28;20024;-79
2024/03/09 03:46:09;;;;;;;3.15;2.05;;;;;;;;;;2096879;28;20024;-79
2024/03/09 03:47:28;;;;;;;1.60;1.50;;;;;;;;;;2101530;28;20028;-79
2024/03/09 03:48:47;;;;;;;2.17;1.65;;;;;;;;;;2103017;28;20040;-79
2024/03/09 03:50:08;;;;;;;1.65;1.48;;;;;;;;;;2105293;28;20055;-79
2024/03/09 03:51:27;;;;;;;1.50;1.40;;;;;;;;;;2094655;28;20033;-79
2024/03/09 03:52:48;;;;;;;2.85;1.85;;;;;;;;;;2100586;28;20469;-80
2024/03/09 03:54:08;;;;;;;18.10;10.52;;;;;;;;;;2096874;28;20115;-80
2024/03/09 03:55:27;;;;;;;6.18;2.70;;;;;;;;;;2090361;28;20032;-78
2024/03/09 03:56:46;;;;;;;3.92;1.52;;;;;;;;;;2101886;28;20032;-80
2024/03/09 03:58:06;;;;;;;1.80;1.48;;;;;;;;;;2094249;28;20495;-79
2024/03/09 03:59:25;;;;;;;1.40;1.30;;;;;;;;;;2083931;28;20033;-79
2024/03/09 04:00:44;;;;;;;4.53;1.80;;;;;;;;;;2089476;28;20036;-79
2024/03/09 04:02:07;;;;;;;3.40;1.55;;;;;;;;;;2101262;28;20028;-80
2024/03/09 04:03:31;;;;;;;1.27;1.20;;;;;;;;;;2093529;28;20021;-79
2024/03/09 04:04:51;;;;;;;3.38;1.85;;;;;;;;;;2102384;28;20028;-79
2024/03/09 04:06:10;;;;;;;2.28;1.50;;;;;;;;;;2105224;28;20032;-79
2024/03/09 04:07:30;;;;;;;1.83;1.73;;;;;;;;;;2105918;28;20028;-79
2024/03/09 04:08:49;;;;;;;2.33;1.75;;;;;;;;;;2104589;28;20044;-81
2024/03/09 04:10:13;;;;;;;1.65;1.55;;;;;;;;;;2105686;28;20062;-78
2024/03/09 04:11:33;;;;;;;1.85;1.70;;;;;;;;;;2104956;28;20028;-79
2024/03/09 04:12:52;;;;;;;3.63;1.85;;;;;;;;;;2105016;28;20016;-78
2024/03/09 04:14:11;;;;;;;1.40;1.30;;;;;;;;;;2105496;28;20028;-78
2024/03/09 04:15:31;;;;;;;1.50;1.40;;;;;;;;;;2095974;28;20025;-78
2024/03/09 04:16:52;;;;;;;1.27;1.17;;;;;;;;;;2094118;28;20064;-78
2024/03/09 04:18:13;;;;;;;1.40;1.30;;;;;;;;;;2095894;28;20025;-79
2024/03/09 04:19:32;;;;;;;1.08;0.98;;;;;;;;;;2102718;28;20028;-79
2024/03/09 04:20:53;;;;;;;3.22;1.58;;;;;;;;;;2095707;28;20095;-80
2024/03/09 04:22:13;;;;;;;1.73;1.50;;;;;;;;;;2094018;28;20494;-79
2024/03/09 04:23:32;;;;;;;4.20;1.67;;;;;;;;;;2100006;28;20028;-80
2024/03/09 04:24:51;;;;;;;3.40;1.35;;;;;;;;;;2105589;28;20104;-79
2024/03/09 04:26:11;;;;;;;3.65;1.60;;;;;;;;;;2104629;28;20401;-79
2024/03/09 04:27:30;;;;;;;1.77;1.50;;;;;;;;;;2103754;28;20295;-80
2024/03/09 04:28:48;;;;;;;1.63;1.40;;;;;;;;;;2105181;28;20058;-80
2024/03/09 04:30:09;;;;;;;4.40;1.65;;;;;;;;;;2103549;28;20020;-80
2024/03/09 04:31:32;;;;;;;3.63;1.50;;;;;;;;;;2105693;28;20016;-80
2024/03/09 04:32:52;;;;;;;1.67;1.58;;;;;;;;;;2095351;28;20052;-80
2024/03/09 04:34:11;;;;;;;7.60;1.83;;;;;;;;;;2101919;28;20462;-80
2024/03/09 04:35:31;;;;;;;2.30;1.77;;;;;;;;;;2104661;28;20032;-79
2024/03/09 04:36:50;;;;;;;1.80;1.70;;;;;;;;;;2105059;28;20032;-84
2024/03/09 04:38:09;;;;;;;2.25;1.48;;;;;;;;;;2093771;28;20021;-79
2024/03/09 04:39:29;;;;;;;1.77;1.67;;;;;;;;;;2090954;28;20025;-80
2024/03/09 04:40:51;;;;;;;2.05;1.42;;;;;;;;;;2102273;28;20024;-79
2024/03/09 04:42:10;;;;;;;2.70;1.53;;;;;;;;;;2105279;28;20039;-80
2024/03/09 04:43:37;;;;;;;102.30;47.53;;;;;;;;;;2103967;28;20241;-79
2024/03/09 04:44:56;;;;;;;11.93;7.53;;;;;;;;;;2096000;28;20493;-79
2024/03/09 04:46:16;;;;;;;8.45;4.60;;;;;;;;;;2102694;28;20107;-79
2024/03/09 04:47:35;;;;;;;4.00;2.80;;;;;;;;;;2095449;28;20448;-79
2024/03/09 04:48:53;;;;;;;1.90;1.80;;;;;;;;;;2091879;28;20456;-80
2024/03/09 04:50:17;;;;;;;1.95;1.85;;;;;;;;;;2091569;28;20016;-79
2024/03/09 04:51:36;;;;;;;2.30;1.67;;;;;;;;;;2095788;28;20044;-80
2024/03/09 04:52:56;;;;;;;2.45;1.60;;;;;;;;;;2101230;28;20032;-80
2024/03/09 04:54:18;;;;;;;4.50;1.80;;;;;;;;;;2105115;28;20036;-79
2024/03/09 04:55:38;;;;;;;5.05;2.15;;;;;;;;;;2095833;28;20041;-80
2024/03/09 04:56:57;;;;;;;2.03;1.92;;;;;;;;;;2100910;28;20024;-79
2024/03/09 04:58:21;;;;;;;3.15;1.98;;;;;;;;;;2096267;28;20381;-80
2024/03/09 04:59:44;;;;;;;2.90;2.13;;;;;;;;;;2102884;28;20029;-79
2024/03/09 05:01:03;;;;;;;6.80;1.88;;;;;;;;;;2095168;28;20029;-78
2024/03/09 05:02:21;;;;;;;3.88;1.67;;;;;;;;;;2100475;28;20020;-78
2024/03/09 05:03:40;;;;;;;3.47;1.98;;;;;;;;;;2107262;28;20032;-78
2024/03/09 05:04:59;;;;;;;3.17;1.58;;;;;;;;;;2108008;28;20036;-78
2024/03/09 05:06:18;;;;;;;2.35;1.80;;;;;;;;;;2106705;28;20028;-78
2024/03/09 05:07:37;;;;;;;1.73;1.33;;;;;;;;;;2106412;28;20031;-78
2024/03/09 05:08:57;;;;;;;2.58;2.15;;;;;;;;;;2105725;28;20028;-78
2024/03/09 05:10:20;;;;;;;1.83;1.73;;;;;;;;;;2107604;28;20509;-78
2024/03/09 05:11:39;;;;;;;1.90;1.48;;;;;;;;;;2105473;28;20036;-78
2024/03/09 05:12:58;;;;;;;1.33;1.23;;;;;;;;;;2103959;28;20028;-78
2024/03/09 05:14:17;;;;;;;2.38;1.55;;;;;;;;;;2105650;28;20028;-78
2024/03/09 05:15:36;;;;;;;2.35;1.65;;;;;;;;;;2107312;28;20024;-79
2024/03/09 05:16:55;;;;;;;4.38;1.40;;;;;;;;;;2098720;28;20024;-79
2024/03/09 05:18:14;;;;;;;3.80;1.70;;;;;;;;;;2102529;28;20485;-78
2024/03/09 05:19:33;;;;;;;2.10;1.73;;;;;;;;;;2105896;28;20032;-79
2024/03/09 05:20:52;;;;;;;2.15;1.83;;;;;;;;;;2097061;28;20029;-78
2024/03/09 05:22:12;;;;;;;3.35;1.85;;;;;;;;;;2095564;28;20037;-78
2024/03/09 05:23:31;;;;;;;1.63;1.52;;;;;;;;;;2101853;28;20403;-78
2024/03/09 05:24:52;;;;;;;1.50;1.40;;;;;;;;;;2094995;28;20032;-78
2024/03/09 05:26:12;;;;;;;1.45;1.35;;;;;;;;;;2093765;28;20103;-78
2024/03/09 05:27:30;;;;;;;1.40;1.30;;;;;;;;;;2095448;28;20029;-80
2024/03/09 05:28:50;;;;;;;1.45;1.35;;;;;;;;;;2101966;28;20568;-78
2024/03/09 05:30:15;;;;;;;4.38;1.63;;;;;;;;;;2098330;28;20104;-78
2024/03/09 05:31:34;;;;;;;1.65;1.55;;;;;;;;;;2096993;28;20032;-78
2024/03/09 05:32:54;;;;;;;1.38;1.27;;;;;;;;;;2093902;28;20032;-79
2024/03/09 05:34:15;;;;;;;2.03;1.17;;;;;;;;;;2094426;28;20033;-77
2024/03/09 05:35:34;;;;;;;1.65;1.40;;;;;;;;;;2097088;28;20610;-78
2024/03/09 05:36:54;;;;;;;2.60;1.48;;;;;;;;;;2101445;28;20067;-78
2024/03/09 05:38:13;;;;;;;1.35;1.20;;;;;;;;;;2107432;28;20024;-78
2024/03/09 05:39:36;;;;;;;1.40;1.30;;;;;;;;;;2106574;28;20020;-80
2024/03/09 05:40:55;;;;;;;1.55;1.45;;;;;;;;;;2098314;28;20037;-78
2024/03/09 05:42:14;;;;;;;1.83;1.35;;;;;;;;;;2096563;28;20057;-79
2024/03/09 05:43:33;;;;;;;1.70;1.60;;;;;;;;;;2102394;28;20020;-80
2024/03/09 05:44:52;;;;;;;1.48;1.38;;;;;;;;;;2096841;28;20498;-80
2024/03/09 05:46:12;;;;;;;1.27;1.17;;;;;;;;;;2103367;28;20032;-79
2024/03/09 05:47:31;;;;;;;20.17;11.25;;;;;;;;;;2107586;28;20024;-84
2024/03/09 05:48:50;;;;;;;25.63;12.57;;;;;;;;;;2107011;28;20032;-84
2024/03/09 05:50:09;;;;;;;3.28;1.90;;;;;;;;;;2106137;28;20025;-84
2024/03/09 05:51:31;;;;;;;1.55;1.45;;;;;;;;;;2098193;28;20103;-84
2024/03/09 05:52:53;;;;;;;3.83;2.95;;;;;;;;;;2095410;28;20017;-84
2024/03/09 05:54:12;;;;;;;1.52;1.42;;;;;;;;;;2095781;28;20056;-84
2024/03/09 05:55:31;;;;;;;1.73;1.35;;;;;;;;;;2102729;28;20024;-85
2024/03/09 05:56:51;;;;;;;1.50;1.40;;;;;;;;;;2107169;28;20032;-85
2024/03/09 05:58:10;;;;;;;1.33;1.23;;;;;;;;;;2105698;28;20037;-84
2024/03/09 05:59:32;;;;;;;1.75;1.65;;;;;;;;;;2106663;28;20035;-83
2024/03/09 06:00:51;;;;;;;3.93;1.80;;;;;;;;;;2099046;28;20028;-83
2024/03/09 06:02:13;;;;;;;1.65;1.55;;;;;;;;;;2094776;28;20750;-82
2024/03/09 06:03:32;;;;;;;1.65;1.38;;;;;;;;;;2103335;28;20036;-83
2024/03/09 06:04:51;;;;;;;2.10;1.33;;;;;;;;;;2097916;28;20036;-81
2024/03/09 06:06:12;;;;;;;1.40;1.30;;;;;;;;;;2104991;28;20028;-84
2024/03/09 06:07:34;;;;;;;1.30;1.20;;;;;;;;;;2107195;28;20035;-84
2024/03/09 06:08:54;;;;;;;2.53;1.63;;;;;;;;;;2099666;28;20077;-83
2024/03/09 06:10:14;;;;;;;5.40;2.00;;;;;;;;;;2101726;28;20028;-80
2024/03/09 06:11:34;;;;;;;2.90;1.85;;;;;;;;;;2100483;28;20060;-84
2024/03/09 06:12:55;;;;;;;3.00;1.75;;;;;;;;;;2103852;28;20103;-80
2024/03/09 06:14:18;;;;;;;1.85;1.75;;;;;;;;;;2107304;28;20135;-80
2024/03/09 06:15:38;;;;;;;2.90;1.60;;;;;;;;;;2106221;28;20061;-80
2024/03/09 06:16:57;;;;;;;3.70;1.90;;;;;;;;;;2098796;28;20025;-84
2024/03/09 06:18:23;;;;;;;1.58;1.48;;;;;;;;;;2091534;28;20053;-80
2024/03/09 06:19:42;;;;;;;2.45;1.80;;;;;;;;;;2096166;28;20416;-81
2024/03/09 06:21:01;;;;;;;1.80;1.70;;;;;;;;;;2101350;28;20381;-81
2024/03/09 06:22:20;;;;;;;1.80;1.70;;;;;;;;;;2107112;28;20061;-81
2024/03/09 06:23:38;;;;;;;2.00;1.80;;;;;;;;;;2104429;28;20020;-81
2024/03/09 06:24:57;;;;;;;2.65;1.90;;;;;;;;;;2097404;28;20021;-82
2024/03/09 06:26:17;;;;;;;2.50;2.03;;;;;;;;;;2095681;28;20020;-82
2024/03/09 06:27:36;;;;;;;2.80;1.75;;;;;;;;;;2104501;28;20205;-82
2024/03/09 06:28:55;;;;;;;2.10;2.00;;;;;;;;;;2096539;28;20393;-80
2024/03/09 06:30:17;;;;;;;1.90;1.70;;;;;;;;;;2102478;28;20024;-78
2024/03/09 06:31:36;;;;;;;2.33;2.13;;;;;;;;;;2095986;28;20029;-78
2024/03/09 06:32:57;;;;;;;2.72;1.75;;;;;;;;;;2102043;28;20028;-79
2024/03/09 06:34:16;;;;;;;2.60;1.73;;;;;;;;;;2103608;28;20024;-79
2024/03/09 06:35:35;;;;;;;2.95;2.08;;;;;;;;;;2095875;28;20060;-80
2024/03/09 06:36:55;;;;;;;2.75;2.10;;;;;;;;;;2100151;28;20032;-80
2024/03/09 06:38:14;;;;;;;2.90;2.03;;;;;;;;;;2096551;28;20104;-79
2024/03/09 06:39:35;;;;;;;2.40;2.20;;;;;;;;;;2092278;28;20489;-79
2024/03/09 06:40:54;;;;;;;2.05;1.92;;;;;;;;;;2101176;28;20357;-79
2024/03/09 06:42:12;;;;;;;4.38;2.35;;;;;;;;;;2105303;28;20447;-79
2024/03/09 06:43:31;;;;;;;2.60;2.40;;;;;;;;;;2105980;28;20110;-79
2024/03/09 06:44:50;;;;;;;4.10;2.10;;;;;;;;;;2105710;28;20103;-80
2024/03/09 06:46:10;;;;;;;2.10;2.00;;;;;;;;;;2106512;28;20028;-80
2024/03/09 06:47:31;;;;;;;2.55;2.03;;;;;;;;;;2096663;28;20028;-79
2024/03/09 06:48:51;;;;;;;2.42;2.00;;;;;;;;;;2095861;28;20040;-79
2024/03/09 06:50:13;;;;;;;2.95;2.30;;;;;;;;;;2100326;28;20028;-80
2024/03/09 06:51:32;;;;;;;2.22;2.03;;;;;;;;;;2096364;28;20030;-79
2024/03/09 06:52:51;;;;;;;2.47;2.30;;;;;;;;;;2097073;28;20032;-80
2024/03/09 06:54:13;;;;;;;2.97;2.03;;;;;;;;;;2102256;28;20509;-80
2024/03/09 06:55:34;;;;;;;2.95;2.38;;;;;;;;;;2106327;28;20095;-80
2024/03/09 06:56:53;;;;;;;2.58;2.38;;;;;;;;;;2105594;28;20032;-76
2024/03/09 06:58:12;;;;;;;3.13;2.30;;;;;;;;;;2105701;28;20032;-76
2024/03/09 06:59:32;;;;;;;2.30;2.10;;;;;;;;;;2095708;28;20028;-77
2024/03/09 07:00:50;;;;;;;2.40;2.20;;;;;;;;;;2093298;28;20107;-76
2024/03/09 07:02:10;;;;;;;2.47;2.25;;;;;;;;;;2100832;28;20046;-76
2024/03/09 07:03:29;;;;;;;2.40;2.20;;;;;;;;;;2096951;28;20028;-77
2024/03/09 07:04:50;;;;;;;2.30;2.17;;;;;;;;;;2100955;28;20065;-76
2024/03/09 07:06:09;;;;;;;2.45;2.25;;;;;;;;;;2104671;28;20385;-76
2024/03/09 07:07:28;;;;;;;2.63;2.42;;;;;;;;;;2104731;28;20111;-77
2024/03/09 07:08:47;;;;;;;3.13;2.70;;;;;;;;;;2105754;28;20032;-78
2024/03/09 07:10:11;;;;;;;5.93;2.40;;;;;;;;;;2105735;28;20450;-77
2024/03/09 07:11:31;;;;;;;3.40;2.60;;;;;;;;;;2106765;28;20020;-76
2024/03/09 07:12:50;;;;;;;2.70;2.50;;;;;;;;;;2104177;28;20489;-75
2024/03/09 07:14:08;;;;;;;3.72;2.10;;;;;;;;;;2106317;28;20111;-76
2024/03/09 07:15:30;;;;;;;2.53;2.33;;;;;;;;;;2105363;28;20020;-77
2024/03/09 07:16:51;;;;;;;4.00;2.72;;;;;;;;;;2105048;28;20028;-75
2024/03/09 07:18:10;;;;;;;3.63;2.70;;;;;;;;;;2096499;28;20060;-77
2024/03/09 07:19:29;;;;;;;3.08;2.10;;;;;;;;;;2093716;28;20029;-76
2024/03/09 07:20:52;;;;;;;2.10;1.88;;;;;;;;;;2088438;28;20518;-76
2024/03/09 07:22:12;;;;;;;2.90;2.70;;;;;;;;;;2092434;28;20040;-80
2024/03/09 07:23:32;;;;;;;3.63;2.42;;;;;;;;;;2093360;28;20028;-77
2024/03/09 07:24:51;;;;;;;6.43;2.47;;;;;;;;;;2102669;28;20028;-78
2024/03/09 07:26:13;;;;;;;3.40;2.63;;;;;;;;;;2093659;28;20036;-78
2024/03/09 07:27:37;;;;;;;2.22;2.03;;;;;;;;;;2101374;28;20036;-77
2024/03/09 07:28:55;;;;;;;5.68;2.50;;;;;;;;;;2105546;28;20020;-76
2024/03/09 07:30:14;;;;;;;3.50;2.50;;;;;;;;;;2096086;28;20638;-76
2024/03/09 07:31:34;;;;;;;6.90;2.35;;;;;;;;;;2100619;28;20389;-77
2024/03/09 07:32:56;;;;;;;2.85;2.20;;;;;;;;;;2096417;28;20029;-75
2024/03/09 07:34:17;;;;;;;4.45;2.35;;;;;;;;;;2100184;28;20032;-76
2024/03/09 07:35:37;;;;;;;6.28;2.38;;;;;;;;;;2102861;28;20036;-75
2024/03/09 07:37:00;;;;;;;12.57;6.10;;;;;;;;;;2094193;28;20053;-78
2024/03/09 07:38:21;;;;;;;;;;;;;;;;;;2101522;28;20028;-76
2024/03/09 07:39:40;;;;;;;16.83;8.93;;;;;;;;;;2103320;28;19963;-77
2024/03/09 07:40:59;;;;;;;2.40;2.20;;;;;;;;;;2104739;28;20032;-76
2024/03/09 07:42:18;;;;;;;5.00;2.63;;;;;;;;;;2104851;28;20024;-76
2024/03/09 07:43:38;;;;;;;2.33;2.10;;;;;;;;;;2095971;28;20024;-76
2024/03/09 07:44:57;;;;;;;4.22;2.33;;;;;;;;;;2092350;28;20021;-77
2024/03/09 07:46:15;;;;;;;3.90;2.53;;;;;;;;;;2100935;28;20028;-77
2024/03/09 07:47:34;;;;;;;2.55;2.10;;;;;;;;;;2104177;28;20028;-77
2024/03/09 07:48:53;;;;;;;3.03;2.30;;;;;;;;;;2104333;28;20025;-76
2024/03/09 07:50:13;;;;;;;5.38;1.88;;;;;;;;;;2092708;28;20020;-78
2024/03/09 07:51:35;;;;;;;2.67;1.83;;;;;;;;;;2099743;28;20040;-78
2024/03/09 07:52:55;;;;;;;1.67;1.58;;;;;;;;;;2094108;28;20032;-77
2024/03/09 07:54:14;;;;;;;2.63;1.58;;;;;;;;;;2101836;28;20062;-77
2024/03/09 07:55:34;;;;;;;1.60;1.50;;;;;;;;;;2096526;28;20021;-79
2024/03/09 07:56:53;;;;;;;2.15;2.03;;;;;;;;;;2092375;28;20037;-77
2024/03/09 07:58:11;;;;;;;7.93;2.33;;;;;;;;;;2100698;28;20455;-77
2024/03/09 07:59:30;;;;;;;4.07;1.70;;;;;;;;;;2093585;28;20036;-76
2024/03/09 08:00:49;;;;;;;3.47;2.08;;;;;;;;;;2099950;28;20063;-76
2024/03/09 08:02:10;;;;;;;6.20;1.90;;;;;;;;;;2103036;28;20074;-78